Time;durP1;ratioP1;P1;durP2;ratioP2;P2;SDS_P1;SDS_P2;PMS_P1;PMS_P2;Temp;Humidity;BMP_temperature;BMP_pressure;BME280_temperature;BME280_humidity;BME280_pressure;Samples;Min_cycle;Max_cycle;Signal;HPM_P1;HPM_P2
2021/03/28 00:01:36;;;;;;;2.11;1.61;;;;;;;19.50;43.42;101729.77;;;;-61
2021/03/28 00:04:35;;;;;;;2.24;1.64;;;;;;;19.49;43.45;101730.00;;;;-61
2021/03/28 00:07:35;;;;;;;2.77;1.73;;;;;;;19.49;43.47;101730.98;;;;-62
2021/03/28 00:10:36;;;;;;;1.79;1.41;;;;;;;19.47;43.43;101731.16;;;;-62
2021/03/28 00:13:35;;;;;;;2.16;1.61;;;;;;;19.46;43.48;101729.50;;;;-61
2021/03/28 00:16:35;;;;;;;2.34;1.60;;;;;;;19.45;43.48;101726.40;;;;-61
2021/03/28 00:19:36;;;;;;;1.72;1.60;;;;;;;19.43;43.45;101726.42;;;;-62
2021/03/28 00:22:36;;;;;;;2.66;1.66;;;;;;;19.42;43.46;101729.51;;;;-61
2021/03/28 00:25:35;;;;;;;2.03;1.61;;;;;;;19.41;43.50;101731.58;;;;-62
2021/03/28 00:28:35;;;;;;;1.74;1.50;;;;;;;19.39;43.50;101728.67;;;;-62
2021/03/28 00:31:35;;;;;;;1.70;1.49;;;;;;;19.37;43.46;101728.05;;;;-58
2021/03/28 00:34:36;;;;;;;1.71;1.57;;;;;;;19.37;43.42;101728.86;;;;-58
2021/03/28 00:37:35;;;;;;;2.41;1.67;;;;;;;19.36;43.46;101726.70;;;;-58
2021/03/28 00:40:35;;;;;;;1.78;1.54;;;;;;;19.34;43.50;101724.78;;;;-58
2021/03/28 00:43:36;;;;;;;1.72;1.55;;;;;;;19.32;43.50;101729.97;;;;-58
2021/03/28 00:46:35;;;;;;;1.61;1.40;;;;;;;19.31;43.46;101729.27;;;;-58
2021/03/28 00:49:35;;;;;;;1.94;1.62;;;;;;;19.30;43.54;101725.64;;;;-52
2021/03/28 00:52:36;;;;;;;1.94;1.71;;;;;;;19.28;43.48;101726.69;;;;-51
2021/03/28 00:55:36;;;;;;;1.85;1.67;;;;;;;19.27;43.48;101730.95;;;;-52
2021/03/28 00:58:35;;;;;;;1.52;1.42;;;;;;;19.25;43.51;101728.13;;;;-51
2021/03/28 01:01:36;;;;;;;1.89;1.63;;;;;;;19.24;43.53;101723.97;;;;-51
2021/03/28 01:04:36;;;;;;;1.61;1.51;;;;;;;19.23;43.48;101722.05;;;;-59
2021/03/28 01:07:35;;;;;;;1.93;1.60;;;;;;;19.22;43.54;101717.81;;;;-58
2021/03/28 01:10:35;;;;;;;1.77;1.50;;;;;;;19.21;43.52;101716.55;;;;-58
2021/03/28 01:14:36;;;;;;;1.66;1.51;;;;;;;19.19;43.54;101706.17;;;;-59
2021/03/28 01:17:35;;;;;;;1.79;1.50;;;;;;;19.18;43.54;101702.75;;;;-53
2021/03/28 01:20:35;;;;;;;1.64;1.54;;;;;;;19.18;43.53;101699.25;;;;-52
2021/03/28 01:23:36;;;;;;;1.59;1.48;;;;;;;19.16;43.52;101699.37;;;;-51
2021/03/28 01:26:36;;;;;;;1.72;1.50;;;;;;;19.15;43.54;101701.02;;;;-53
2021/03/28 01:29:35;;;;;;;1.58;1.48;;;;;;;19.14;43.55;101706.38;;;;-53
2021/03/28 01:32:35;;;;;;;2.29;1.60;;;;;;;19.13;43.59;101713.72;;;;-53
2021/03/28 01:35:36;;;;;;;1.76;1.46;;;;;;;19.12;43.56;101712.25;;;;-61
2021/03/28 01:38:35;;;;;;;1.82;1.47;;;;;;;19.10;43.59;101707.97;;;;-61
2021/03/28 01:41:35;;;;;;;1.71;1.57;;;;;;;19.10;43.56;101710.48;;;;-61
2021/03/28 01:44:36;;;;;;;2.07;1.49;;;;;;;19.09;43.60;101707.60;;;;-62
2021/03/28 01:47:36;;;;;;;1.45;1.35;;;;;;;19.07;43.60;101709.37;;;;-52
2021/03/28 01:50:36;;;;;;;1.45;1.35;;;;;;;19.06;43.61;101708.67;;;;-51
2021/03/28 01:53:35;;;;;;;1.50;1.40;;;;;;;19.05;43.58;101707.04;;;;-58
2021/03/28 01:56:36;;;;;;;1.59;1.49;;;;;;;19.04;43.61;101705.77;;;;-58
2021/03/28 01:59:35;;;;;;;1.54;1.43;;;;;;;19.03;43.61;101705.52;;;;-58
2021/03/28 02:02:35;;;;;;;1.67;1.47;;;;;;;19.02;43.62;101709.38;;;;-58
2021/03/28 02:05:35;;;;;;;1.66;1.45;;;;;;;19.02;43.61;101706.36;;;;-58
2021/03/28 02:08:36;;;;;;;1.87;1.49;;;;;;;19.01;43.62;101703.50;;;;-57
2021/03/28 02:11:35;;;;;;;1.68;1.49;;;;;;;19.00;43.62;101705.24;;;;-57
2021/03/28 02:14:35;;;;;;;2.89;1.50;;;;;;;18.99;43.65;101702.88;;;;-57
2021/03/28 02:17:35;;;;;;;2.08;1.58;;;;;;;18.97;43.64;101698.84;;;;-57
2021/03/28 02:20:37;;;;;;;1.49;1.37;;;;;;;18.96;43.64;101697.17;;;;-58
2021/03/28 02:23:35;;;;;;;1.58;1.30;;;;;;;18.95;43.63;101698.22;;;;-57
2021/03/28 02:26:36;;;;;;;1.74;1.59;;;;;;;18.94;43.60;101698.41;;;;-58
2021/03/28 02:29:36;;;;;;;1.58;1.40;;;;;;;18.93;43.62;101695.89;;;;-57
2021/03/28 02:32:36;;;;;;;2.05;1.59;;;;;;;18.93;43.64;101703.11;;;;-57
2021/03/28 02:35:35;;;;;;;2.24;1.57;;;;;;;18.92;43.64;101703.39;;;;-53
2021/03/28 02:38:36;;;;;;;1.51;1.40;;;;;;;18.92;43.65;101703.71;;;;-53
2021/03/28 02:41:35;;;;;;;2.21;1.60;;;;;;;18.89;43.63;101705.19;;;;-53
2021/03/28 02:44:36;;;;;;;1.68;1.49;;;;;;;18.89;43.64;101702.34;;;;-53
2021/03/28 02:47:38;;;;;;;1.75;1.43;;;;;;;18.88;43.60;101707.75;;;;-61
2021/03/28 02:50:36;;;;;;;1.58;1.45;;;;;;;18.88;43.62;101711.48;;;;-62
2021/03/28 02:54:35;;;;;;;1.56;1.42;;;;;;;18.87;43.65;101718.53;;;;-53
2021/03/28 02:59:36;;;;;;;2.03;1.37;;;;;;;18.84;43.65;101716.52;;;;-53
2021/03/28 03:02:35;;;;;;;1.78;1.56;;;;;;;18.84;43.66;101720.25;;;;-57
2021/03/28 03:05:35;;;;;;;1.77;1.60;;;;;;;18.84;43.65;101718.34;;;;-58
2021/03/28 03:08:36;;;;;;;1.54;1.44;;;;;;;18.82;43.66;101712.72;;;;-58
2021/03/28 03:11:35;;;;;;;1.93;1.60;;;;;;;18.82;43.64;101714.83;;;;-52
2021/03/28 03:14:35;;;;;;;1.61;1.51;;;;;;;18.82;43.64;101718.37;;;;-52
2021/03/28 03:17:35;;;;;;;1.61;1.51;;;;;;;18.81;43.64;101716.16;;;;-51
2021/03/28 03:21:35;;;;;;;1.86;1.49;;;;;;;18.79;43.63;101718.05;;;;-51
2021/03/28 03:25:35;;;;;;;2.04;1.61;;;;;;;18.77;43.66;101715.77;;;;-51
2021/03/28 03:28:36;;;;;;;2.10;1.60;;;;;;;18.76;43.64;101711.53;;;;-52
2021/03/28 03:31:35;;;;;;;1.50;1.40;;;;;;;18.76;43.65;101713.89;;;;-51
2021/03/28 03:34:35;;;;;;;1.87;1.61;;;;;;;18.75;43.66;101711.89;;;;-52
2021/03/28 03:37:35;;;;;;;1.41;1.30;;;;;;;18.74;43.68;101710.30;;;;-57
2021/03/28 03:40:35;;;;;;;1.49;1.39;;;;;;;18.74;43.66;101711.39;;;;-57
2021/03/28 03:43:35;;;;;;;1.49;1.39;;;;;;;18.73;43.64;101713.78;;;;-52
2021/03/28 03:46:36;;;;;;;1.51;1.40;;;;;;;18.72;43.67;101718.31;;;;-52
2021/03/28 03:49:36;;;;;;;1.58;1.48;;;;;;;18.72;43.66;101718.15;;;;-51
2021/03/28 03:52:35;;;;;;;1.72;1.43;;;;;;;18.72;43.62;101716.05;;;;-51
2021/03/28 03:55:35;;;;;;;1.48;1.38;;;;;;;18.71;43.66;101716.16;;;;-61
2021/03/28 03:58:35;;;;;;;1.69;1.50;;;;;;;18.70;43.66;101715.25;;;;-60
2021/03/28 04:01:35;;;;;;;1.87;1.41;;;;;;;18.69;43.65;101712.93;;;;-57
2021/03/28 04:04:35;;;;;;;1.39;1.29;;;;;;;18.68;43.67;101711.70;;;;-53
2021/03/28 04:07:35;;;;;;;1.61;1.37;;;;;;;18.68;43.69;101707.95;;;;-53
2021/03/28 04:10:36;;;;;;;1.82;1.53;;;;;;;18.66;43.69;101716.27;;;;-53
2021/03/28 04:13:35;;;;;;;1.82;1.43;;;;;;;18.65;43.69;101714.27;;;;-53
2021/03/28 04:16:35;;;;;;;1.88;1.54;;;;;;;18.65;43.68;101715.00;;;;-53
2021/03/28 04:19:38;;;;;;;1.91;1.45;;;;;;;18.64;43.68;101717.59;;;;-53
2021/03/28 04:22:35;;;;;;;1.62;1.52;;;;;;;18.64;43.71;101719.20;;;;-52
2021/03/28 04:25:35;;;;;;;1.73;1.45;;;;;;;18.63;43.70;101719.25;;;;-51
2021/03/28 04:28:36;;;;;;;1.53;1.43;;;;;;;18.62;43.67;101725.89;;;;-51
2021/03/28 04:31:35;;;;;;;1.63;1.45;;;;;;;18.61;43.70;101729.58;;;;-60
2021/03/28 04:34:35;;;;;;;2.18;1.48;;;;;;;18.61;43.68;101733.31;;;;-62
2021/03/28 04:37:35;;;;;;;1.87;1.50;;;;;;;18.60;43.75;101733.70;;;;-60
2021/03/28 04:40:35;;;;;;;1.71;1.41;;;;;;;18.59;43.68;101726.47;;;;-61
2021/03/28 04:43:35;;;;;;;2.36;1.40;;;;;;;18.59;43.71;101726.75;;;;-61
2021/03/28 04:48:35;;;;;;;1.99;1.31;;;;;;;18.58;43.69;101727.06;;;;-53
2021/03/28 04:51:35;;;;;;;1.61;1.50;;;;;;;18.57;43.69;101727.58;;;;-62
2021/03/28 04:56:35;;;;;;;2.36;1.58;;;;;;;18.56;43.70;101736.34;;;;-61
2021/03/28 04:59:35;;;;;;;1.81;1.41;;;;;;;18.55;43.73;101741.44;;;;-60
2021/03/28 05:02:35;;;;;;;1.50;1.40;;;;;;;18.55;43.71;101744.04;;;;-61
2021/03/28 05:05:35;;;;;;;1.55;1.45;;;;;;;18.55;43.72;101747.77;;;;-60
2021/03/28 05:08:36;;;;;;;1.87;1.50;;;;;;;18.54;43.70;101746.67;;;;-60
2021/03/28 05:13:35;;;;;;;2.99;1.50;;;;;;;18.53;43.68;101751.93;;;;-60
2021/03/28 05:16:35;;;;;;;1.76;1.53;;;;;;;18.53;43.71;101756.08;;;;-61
2021/03/28 05:20:35;;;;;;;1.75;1.35;;;;;;;18.53;43.72;101750.47;;;;-60
2021/03/28 05:30:01;;;;;;;1.73;1.44;;;;;;;18.57;43.69;101754.45;;;;-61
2021/03/28 05:33:01;;;;;;;1.97;1.54;;;;;;;18.58;43.73;101757.02;;;;-53
2021/03/28 05:36:01;;;;;;;1.41;1.31;;;;;;;18.59;43.71;101760.08;;;;-51
2021/03/28 05:40:01;;;;;;;1.71;1.50;;;;;;;18.63;43.67;101761.63;;;;-52
2021/03/28 05:43:01;;;;;;;1.53;1.40;;;;;;;18.66;43.72;101762.30;;;;-57
2021/03/28 05:46:01;;;;;;;1.81;1.51;;;;;;;18.69;43.72;101760.19;;;;-58
2021/03/28 05:49:01;;;;;;;1.49;1.39;;;;;;;18.74;43.75;101763.25;;;;-53
2021/03/28 05:53:01;;;;;;;1.80;1.40;;;;;;;18.77;43.75;101765.80;;;;-51
2021/03/28 05:56:01;;;;;;;1.59;1.37;;;;;;;18.80;43.72;101764.16;;;;-51
2021/03/28 06:02:01;;;;;;;1.87;1.51;;;;;;;18.85;43.72;101773.70;;;;-51
2021/03/28 06:07:01;;;;;;;1.49;1.39;;;;;;;18.88;43.73;101784.67;;;;-52
2021/03/28 06:13:01;;;;;;;1.55;1.45;;;;;;;18.90;43.76;101790.17;;;;-56
2021/03/28 06:16:01;;;;;;;2.11;1.68;;;;;;;18.91;43.73;101797.03;;;;-57
2021/03/28 06:19:01;;;;;;;1.51;1.37;;;;;;;18.91;43.73;101798.34;;;;-53
2021/03/28 06:22:01;;;;;;;1.40;1.30;;;;;;;18.92;43.75;101801.69;;;;-51
2021/03/28 06:25:01;;;;;;;1.50;1.40;;;;;;;18.93;43.76;101808.39;;;;-61
2021/03/28 06:28:01;;;;;;;1.66;1.49;;;;;;;18.93;43.72;101804.82;;;;-52
2021/03/28 06:33:01;;;;;;;1.45;1.35;;;;;;;18.94;43.69;101805.97;;;;-53
2021/03/28 06:38:01;;;;;;;1.53;1.43;;;;;;;18.93;43.67;101805.88;;;;-53
2021/03/28 06:41:01;;;;;;;1.94;1.40;;;;;;;18.93;43.64;101811.64;;;;-53
2021/03/28 06:44:01;;;;;;;1.75;1.42;;;;;;;18.93;43.66;101810.83;;;;-53
2021/03/28 06:47:01;;;;;;;1.50;1.40;;;;;;;18.93;43.66;101816.84;;;;-53
2021/03/28 06:51:01;;;;;;;1.51;1.39;;;;;;;18.93;43.61;101822.53;;;;-51
2021/03/28 06:54:01;;;;;;;1.41;1.30;;;;;;;18.92;43.63;101828.09;;;;-52
2021/03/28 06:58:01;;;;;;;1.63;1.50;;;;;;;18.92;43.57;101842.22;;;;-51
2021/03/28 07:02:01;;;;;;;1.49;1.33;;;;;;;18.92;43.59;101840.83;;;;-53
2021/03/28 07:05:01;;;;;;;1.71;1.41;;;;;;;18.91;43.56;101839.04;;;;-51
2021/03/28 07:08:01;;;;;;;1.46;1.36;;;;;;;18.91;43.58;101833.19;;;;-51
2021/03/28 07:11:01;;;;;;;1.46;1.31;;;;;;;18.91;43.56;101842.53;;;;-51
2021/03/28 07:14:01;;;;;;;1.59;1.40;;;;;;;18.91;43.58;101853.98;;;;-61
2021/03/28 07:17:01;;;;;;;1.51;1.39;;;;;;;18.90;43.56;101852.55;;;;-60
2021/03/28 07:21:01;;;;;;;1.94;1.35;;;;;;;18.89;43.56;101853.84;;;;-61
2021/03/28 07:24:01;;;;;;;1.47;1.37;;;;;;;18.89;43.57;101862.77;;;;-58
2021/03/28 07:27:01;;;;;;;1.51;1.41;;;;;;;18.89;43.59;101861.96;;;;-58
2021/03/28 07:33:01;;;;;;;1.53;1.43;;;;;;;18.87;43.58;101863.52;;;;-57
2021/03/28 07:36:01;;;;;;;1.41;1.31;;;;;;;18.86;43.56;101870.75;;;;-57
2021/03/28 07:39:01;;;;;;;1.62;1.35;;;;;;;18.86;43.58;101872.73;;;;-58
2021/03/28 07:43:01;;;;;;;1.53;1.40;;;;;;;18.86;43.56;101872.86;;;;-58
2021/03/28 07:48:01;;;;;;;1.50;1.40;;;;;;;18.85;43.58;101868.17;;;;-58
2021/03/28 07:53:01;;;;;;;1.83;1.38;;;;;;;18.83;43.56;101870.70;;;;-57
2021/03/28 07:57:01;;;;;;;1.40;1.30;;;;;;;18.83;43.59;101877.37;;;;-57
2021/03/28 08:00:01;;;;;;;1.45;1.35;;;;;;;18.82;43.59;101882.76;;;;-61
2021/03/28 08:03:01;;;;;;;4.07;1.65;;;;;;;18.77;43.15;101883.40;;;;-61
2021/03/28 08:06:01;;;;;;;3.62;2.23;;;;;;;18.55;41.59;101881.17;;;;-60
2021/03/28 08:09:01;;;;;;;8.90;2.11;;;;;;;18.55;42.30;101882.47;;;;-59
2021/03/28 08:12:01;;;;;;;3.48;2.02;;;;;;;18.62;42.82;101885.52;;;;-61
2021/03/28 08:15:01;;;;;;;5.04;2.01;;;;;;;18.67;43.17;101882.09;;;;-59
2021/03/28 08:18:01;;;;;;;3.41;1.86;;;;;;;18.74;43.33;101889.25;;;;-52
2021/03/28 08:21:01;;;;;;;7.22;1.83;;;;;;;18.80;43.68;101886.88;;;;-50
2021/03/28 08:24:01;;;;;;;3.11;1.96;;;;;;;18.86;43.83;101890.04;;;;-53
2021/03/28 08:27:03;;;;;;;3.20;1.81;;;;;;;18.93;43.92;101892.39;;;;-53
2021/03/28 08:30:01;;;;;;;4.62;1.98;;;;;;;18.98;43.87;101890.91;;;;-58
2021/03/28 08:36:01;;;;;;;3.19;1.83;;;;;;;19.12;43.82;101887.29;;;;-60
2021/03/28 08:39:01;;;;;;;3.19;1.94;;;;;;;19.13;43.49;101881.89;;;;-55
2021/03/28 08:44:01;;;;;;;2.79;1.63;;;;;;;19.20;43.47;101866.64;;;;-54
2021/03/28 08:47:01;;;;;;;5.18;1.80;;;;;;;19.25;43.56;101868.02;;;;-49
2021/03/28 08:52:01;;;;;;;4.39;1.83;;;;;;;19.35;43.66;101876.03;;;;-48
2021/03/28 08:55:01;;;;;;;2.81;1.80;;;;;;;19.42;43.82;101880.61;;;;-53
2021/03/28 08:58:01;;;;;;;3.88;1.85;;;;;;;19.47;43.77;101880.53;;;;-58
2021/03/28 09:01:01;;;;;;;4.17;1.70;;;;;;;19.51;44.02;101871.14;;;;-50
2021/03/28 09:04:01;;;;;;;2.53;1.67;;;;;;;19.55;43.91;101865.28;;;;-55
2021/03/28 09:07:01;;;;;;;2.99;1.87;;;;;;;19.58;43.78;101858.23;;;;-53
2021/03/28 09:10:01;;;;;;;2.86;1.85;;;;;;;19.63;43.99;101857.17;;;;-51
2021/03/28 09:13:01;;;;;;;2.65;1.84;;;;;;;19.66;44.04;101852.20;;;;-53
2021/03/28 09:16:02;;;;;;;3.00;1.90;;;;;;;19.70;43.70;101859.30;;;;-53
2021/03/28 09:19:01;;;;;;;2.79;1.81;;;;;;;19.73;44.10;101864.85;;;;-61
2021/03/28 09:22:01;;;;;;;4.46;1.71;;;;;;;19.75;43.85;101865.89;;;;-50
2021/03/28 09:25:01;;;;;;;3.75;1.72;;;;;;;19.78;44.21;101857.94;;;;-49
2021/03/28 09:28:01;;;;;;;3.85;1.79;;;;;;;19.80;43.63;101860.19;;;;-52
2021/03/28 09:31:01;;;;;;;2.81;1.77;;;;;;;19.78;43.41;101865.09;;;;-53
2021/03/28 09:34:01;;;;;;;2.53;1.59;;;;;;;19.79;43.42;101860.95;;;;-60
2021/03/28 09:37:01;;;;;;;3.61;1.69;;;;;;;19.78;43.26;101859.08;;;;-60
2021/03/28 09:40:01;;;;;;;2.56;1.69;;;;;;;19.79;43.34;101859.82;;;;-60
2021/03/28 09:43:01;;;;;;;3.82;1.80;;;;;;;19.81;43.44;101859.22;;;;-60
2021/03/28 09:46:01;;;;;;;2.31;1.63;;;;;;;19.81;43.43;101860.20;;;;-51
2021/03/28 09:49:01;;;;;;;3.99;1.77;;;;;;;19.85;43.57;101855.99;;;;-56
2021/03/28 09:52:01;;;;;;;2.77;1.62;;;;;;;19.89;43.84;101861.39;;;;-50
2021/03/28 09:55:01;;;;;;;3.23;1.91;;;;;;;19.89;43.41;101859.69;;;;-48
2021/03/28 09:59:03;;;;;;;3.39;2.14;;;;;;;19.86;42.54;101850.27;;;;-49
2021/03/28 10:02:01;;;;;;;4.77;2.11;;;;;;;19.86;42.92;101854.70;;;;-53
2021/03/28 10:05:01;;;;;;;4.57;2.10;;;;;;;19.85;43.15;101848.19;;;;-47
2021/03/28 10:08:02;;;;;;;3.70;2.01;;;;;;;19.85;43.28;101852.67;;;;-56
2021/03/28 10:11:01;;;;;;;6.81;2.12;;;;;;;19.85;43.17;101849.58;;;;-53
2021/03/28 10:14:01;;;;;;;4.83;1.95;;;;;;;19.85;43.29;101842.17;;;;-51
2021/03/28 10:18:01;;;;;;;4.23;1.87;;;;;;;19.85;42.91;101841.27;;;;-50
2021/03/28 10:21:01;;;;;;;2.90;1.83;;;;;;;19.85;42.57;101831.18;;;;-55
2021/03/28 10:24:01;;;;;;;3.22;1.70;;;;;;;19.86;41.85;101836.80;;;;-57
2021/03/28 10:27:01;;;;;;;3.04;1.67;;;;;;;19.87;42.39;101832.30;;;;-60
2021/03/28 10:30:01;;;;;;;3.31;1.74;;;;;;;19.87;42.21;101821.39;;;;-58
2021/03/28 10:33:01;;;;;;;3.31;1.89;;;;;;;19.87;41.93;101822.86;;;;-56
2021/03/28 10:36:01;;;;;;;3.27;1.98;;;;;;;19.87;41.98;101809.84;;;;-56
2021/03/28 10:39:03;;;;;;;4.12;1.73;;;;;;;19.88;42.10;101812.24;;;;-59
2021/03/28 10:42:01;;;;;;;3.59;1.70;;;;;;;19.88;41.94;101811.67;;;;-62
2021/03/28 10:45:01;;;;;;;5.49;1.84;;;;;;;19.88;41.68;101811.11;;;;-62
2021/03/28 10:48:01;;;;;;;3.23;1.80;;;;;;;19.88;41.94;101811.92;;;;-60
2021/03/28 10:52:01;;;;;;;2.57;1.75;;;;;;;19.89;41.84;101813.95;;;;-52
2021/03/28 10:55:01;;;;;;;3.76;1.89;;;;;;;19.91;41.83;101807.42;;;;-51
2021/03/28 10:58:01;;;;;;;3.59;1.57;;;;;;;19.92;42.00;101815.85;;;;-54
2021/03/28 11:02:01;;;;;;;3.50;1.70;;;;;;;19.95;42.18;101815.02;;;;-54
2021/03/28 11:06:01;;;;;;;2.22;1.61;;;;;;;19.94;42.17;101803.34;;;;-54
2021/03/28 11:09:02;;;;;;;3.71;1.73;;;;;;;19.96;42.31;101808.67;;;;-54
2021/03/28 11:12:01;;;;;;;4.11;1.68;;;;;;;19.95;42.27;101806.63;;;;-54
2021/03/28 11:15:04;;;;;;;2.05;1.61;;;;;;;19.95;42.31;101800.86;;;;-54
2021/03/28 11:18:01;;;;;;;2.18;1.61;;;;;;;19.96;42.33;101792.73;;;;-54
2021/03/28 11:23:01;;;;;;;2.64;1.63;;;;;;;19.95;42.27;101779.37;;;;-54
2021/03/28 11:26:01;;;;;;;2.89;1.59;;;;;;;19.95;42.38;101778.56;;;;-54
2021/03/28 11:30:01;;;;;;;2.57;1.61;;;;;;;19.98;42.41;101779.72;;;;-54
2021/03/28 11:33:01;;;;;;;2.77;1.50;;;;;;;19.97;42.38;101773.81;;;;-53
2021/03/28 11:36:02;;;;;;;2.16;1.55;;;;;;;19.98;42.35;101776.84;;;;-53
2021/03/28 11:39:01;;;;;;;2.94;1.51;;;;;;;19.99;42.47;101767.77;;;;-54
2021/03/28 11:42:01;;;;;;;1.65;1.38;;;;;;;19.99;42.44;101762.96;;;;-54
2021/03/28 11:45:02;;;;;;;1.95;1.50;;;;;;;20.00;42.41;101761.19;;;;-54
2021/03/28 11:48:01;;;;;;;2.15;1.49;;;;;;;20.01;42.47;101767.41;;;;-54
2021/03/28 11:51:01;;;;;;;2.01;1.60;;;;;;;20.02;42.52;101768.23;;;;-51
2021/03/28 11:54:01;;;;;;;1.71;1.47;;;;;;;20.02;42.54;101767.73;;;;-51
2021/03/28 11:57:01;;;;;;;2.55;1.47;;;;;;;20.02;42.43;101765.05;;;;-52
2021/03/28 12:00:01;;;;;;;2.22;1.50;;;;;;;20.02;42.54;101763.51;;;;-52
2021/03/28 12:03:01;;;;;;;2.02;1.47;;;;;;;20.02;42.55;101759.61;;;;-52
2021/03/28 12:09:01;;;;;;;1.94;1.51;;;;;;;20.05;42.75;101736.67;;;;-52
2021/03/28 12:12:01;;;;;;;2.65;1.63;;;;;;;20.07;43.55;101732.00;;;;-51
2021/03/28 12:15:01;;;;;;;2.98;1.39;;;;;;;20.09;43.79;101730.98;;;;-50
2021/03/28 12:19:01;;;;;;;2.25;1.40;;;;;;;20.14;44.02;101735.41;;;;-47
2021/03/28 12:22:01;;;;;;;1.81;1.51;;;;;;;20.16;43.79;101738.55;;;;-50
2021/03/28 12:25:01;;;;;;;3.13;1.47;;;;;;;20.17;44.00;101730.12;;;;-49
2021/03/28 12:28:01;;;;;;;2.19;1.45;;;;;;;20.20;43.83;101723.83;;;;-57
2021/03/28 12:31:01;;;;;;;1.71;1.35;;;;;;;20.22;44.04;101719.07;;;;-49
2021/03/28 12:34:01;;;;;;;5.17;1.53;;;;;;;20.24;44.02;101720.84;;;;-53
2021/03/28 12:37:01;;;;;;;1.78;1.41;;;;;;;20.25;44.07;101718.97;;;;-56
2021/03/28 12:40:01;;;;;;;1.45;1.28;;;;;;;20.28;44.09;101711.57;;;;-61
2021/03/28 12:43:01;;;;;;;2.45;1.45;;;;;;;20.29;44.09;101710.76;;;;-60
2021/03/28 12:46:01;;;;;;;1.59;1.30;;;;;;;20.30;43.79;101703.47;;;;-50
2021/03/28 12:51:01;;;;;;;2.21;1.22;;;;;;;20.31;43.84;101687.20;;;;-52
2021/03/28 12:54:01;;;;;;;1.97;1.32;;;;;;;20.33;44.12;101680.73;;;;-54
2021/03/28 12:57:02;;;;;;;1.63;1.35;;;;;;;20.35;43.66;101684.44;;;;-54
2021/03/28 13:00:01;;;;;;;1.93;1.25;;;;;;;20.35;43.62;101676.22;;;;-54
2021/03/28 13:03:01;;;;;;;1.65;1.21;;;;;;;20.34;43.93;101673.61;;;;-57
2021/03/28 13:06:01;;;;;;;3.89;1.49;;;;;;;20.36;43.80;101675.45;;;;-52
2021/03/28 13:09:01;;;;;;;3.08;1.39;;;;;;;20.37;43.73;101674.72;;;;-55
2021/03/28 13:12:01;;;;;;;1.63;1.47;;;;;;;20.38;43.73;101669.46;;;;-53
2021/03/28 13:15:01;;;;;;;4.79;1.51;;;;;;;20.38;43.56;101654.32;;;;-55
2021/03/28 13:18:01;;;;;;;2.79;1.30;;;;;;;20.39;43.37;101652.70;;;;-56
2021/03/28 13:21:01;;;;;;;2.53;1.31;;;;;;;20.38;43.18;101644.38;;;;-55
2021/03/28 13:24:01;;;;;;;2.20;1.41;;;;;;;20.38;43.19;101641.62;;;;-53
2021/03/28 13:27:02;;;;;;;2.94;1.40;;;;;;;20.37;43.08;101639.46;;;;-55
2021/03/28 13:30:01;;;;;;;2.37;1.39;;;;;;;20.36;43.03;101635.06;;;;-54
2021/03/28 13:33:01;;;;;;;4.46;1.51;;;;;;;20.35;43.06;101634.45;;;;-55
2021/03/28 13:36:01;;;;;;;1.94;1.44;;;;;;;20.35;42.99;101630.30;;;;-54
2021/03/28 13:39:01;;;;;;;2.39;1.35;;;;;;;20.35;42.94;101629.89;;;;-55
2021/03/28 13:42:01;;;;;;;3.51;1.54;;;;;;;20.34;42.97;101628.34;;;;-55
2021/03/28 13:45:01;;;;;;;1.76;1.24;;;;;;;20.34;42.92;101632.24;;;;-54
2021/03/28 13:48:01;;;;;;;1.86;1.37;;;;;;;20.34;42.85;101625.33;;;;-55
2021/03/28 13:51:01;;;;;;;1.33;1.21;;;;;;;20.33;42.88;101622.27;;;;-55
2021/03/28 13:54:05;;;;;;;1.99;1.30;;;;;;;20.33;42.88;101615.35;;;;-55
2021/03/28 13:57:01;;;;;;;2.71;1.28;;;;;;;20.33;42.86;101616.58;;;;-55
2021/03/28 14:00:01;;;;;;;1.73;1.34;;;;;;;20.33;42.84;101622.52;;;;-54
2021/03/28 14:03:01;;;;;;;1.95;1.33;;;;;;;20.34;42.85;101625.16;;;;-54
2021/03/28 14:06:01;;;;;;;1.85;1.39;;;;;;;20.34;42.83;101628.91;;;;-54
2021/03/28 14:09:01;;;;;;;1.65;1.25;;;;;;;20.34;42.79;101616.53;;;;-54
2021/03/28 14:12:01;;;;;;;1.48;1.27;;;;;;;20.34;42.75;101621.58;;;;-55
2021/03/28 14:15:01;;;;;;;1.39;1.20;;;;;;;20.34;42.78;101615.88;;;;-54
2021/03/28 14:18:01;;;;;;;1.41;1.25;;;;;;;20.33;42.71;101613.08;;;;-54
2021/03/28 14:21:01;;;;;;;1.97;1.31;;;;;;;20.33;42.79;101611.85;;;;-55
2021/03/28 14:24:01;;;;;;;1.52;1.27;;;;;;;20.34;42.75;101615.47;;;;-54
2021/03/28 14:27:01;;;;;;;1.60;1.22;;;;;;;20.34;42.78;101616.13;;;;-54
2021/03/28 14:30:01;;;;;;;1.77;1.27;;;;;;;20.34;42.76;101614.33;;;;-54
2021/03/28 14:33:01;;;;;;;1.42;1.32;;;;;;;20.34;42.72;101616.53;;;;-54
2021/03/28 14:36:01;;;;;;;1.37;1.18;;;;;;;20.33;42.78;101617.23;;;;-54
2021/03/28 14:39:01;;;;;;;2.27;1.36;;;;;;;20.34;43.13;101616.61;;;;-51
2021/03/28 14:43:01;;;;;;;1.51;1.25;;;;;;;20.35;43.57;101620.45;;;;-57
2021/03/28 14:48:01;;;;;;;1.77;1.17;;;;;;;20.36;43.65;101615.68;;;;-51
2021/03/28 14:51:01;;;;;;;5.07;1.33;;;;;;;20.36;43.45;101617.80;;;;-53
2021/03/28 14:54:01;;;;;;;3.29;1.48;;;;;;;20.38;42.90;101613.77;;;;-50
2021/03/28 14:57:01;;;;;;;2.15;1.40;;;;;;;20.41;43.56;101609.42;;;;-52
2021/03/28 15:00:01;;;;;;;2.24;1.39;;;;;;;20.42;43.57;101606.98;;;;-53
2021/03/28 15:03:01;;;;;;;1.60;1.33;;;;;;;20.43;43.48;101603.77;;;;-58
2021/03/28 15:06:01;;;;;;;2.15;1.37;;;;;;;20.45;43.60;101606.00;;;;-61
2021/03/28 15:09:01;;;;;;;1.53;1.23;;;;;;;20.45;43.48;101603.08;;;;-50
2021/03/28 15:12:01;;;;;;;1.47;1.25;;;;;;;20.46;43.71;101602.95;;;;-62
2021/03/28 15:15:01;;;;;;;1.55;1.23;;;;;;;20.48;43.54;101603.61;;;;-60
2021/03/28 15:18:01;;;;;;;1.33;1.23;;;;;;;20.47;43.51;101605.39;;;;-59
2021/03/28 15:21:01;;;;;;;1.30;1.20;;;;;;;20.49;43.60;101603.31;;;;-61
2021/03/28 15:24:01;;;;;;;2.35;1.35;;;;;;;20.50;43.51;101605.69;;;;-58
2021/03/28 15:27:01;;;;;;;2.12;1.29;;;;;;;20.50;43.56;101608.81;;;;-60
2021/03/28 15:30:01;;;;;;;1.94;1.25;;;;;;;20.51;43.49;101605.80;;;;-60
2021/03/28 15:33:01;;;;;;;1.94;1.34;;;;;;;20.50;43.37;101603.48;;;;-58
2021/03/28 15:36:01;;;;;;;1.42;1.25;;;;;;;20.51;43.48;101606.62;;;;-50
2021/03/28 15:39:01;;;;;;;2.53;1.38;;;;;;;20.51;43.22;101609.39;;;;-52
2021/03/28 15:42:01;;;;;;;1.45;1.33;;;;;;;20.51;43.17;101601.41;;;;-51
2021/03/28 15:45:01;;;;;;;2.49;1.18;;;;;;;20.53;43.58;101603.40;;;;-52
2021/03/28 15:48:01;;;;;;;1.89;1.34;;;;;;;20.53;43.29;101599.73;;;;-52
2021/03/28 15:51:01;;;;;;;2.55;1.39;;;;;;;20.54;43.11;101605.44;;;;-57
2021/03/28 15:54:01;;;;;;;2.21;1.24;;;;;;;20.57;43.48;101601.94;;;;-57
2021/03/28 15:57:01;;;;;;;2.06;1.30;;;;;;;20.59;43.68;101600.06;;;;-54
2021/03/28 16:00:01;;;;;;;1.63;1.22;;;;;;;20.62;43.66;101598.23;;;;-56
2021/03/28 16:03:01;;;;;;;1.61;1.11;;;;;;;20.62;43.45;101596.03;;;;-56
2021/03/28 16:06:01;;;;;;;1.52;1.24;;;;;;;20.63;43.51;101596.84;;;;-54
2021/03/28 16:09:01;;;;;;;2.13;1.30;;;;;;;20.62;43.70;101596.03;;;;-57
2021/03/28 16:12:01;;;;;;;1.36;1.23;;;;;;;20.63;43.69;101601.92;;;;-58
2021/03/28 16:18:01;;;;;;;1.81;1.39;;;;;;;20.67;43.83;101594.32;;;;-56
2021/03/28 16:21:01;;;;;;;3.42;1.43;;;;;;;20.60;43.43;101592.65;;;;-59
2021/03/28 16:25:01;;;;;;;2.44;1.39;;;;;;;20.56;43.43;101596.61;;;;-59
2021/03/28 16:28:01;;;;;;;2.19;1.43;;;;;;;20.53;43.31;101597.45;;;;-55
2021/03/28 16:31:01;;;;;;;1.77;1.39;;;;;;;20.53;43.36;101592.65;;;;-52
2021/03/28 16:34:01;;;;;;;3.33;1.47;;;;;;;20.54;43.38;101594.94;;;;-57
2021/03/28 16:37:01;;;;;;;4.04;1.45;;;;;;;20.54;43.10;101593.42;;;;-57
2021/03/28 16:40:01;;;;;;;3.47;1.37;;;;;;;20.54;43.05;101595.54;;;;-57
2021/03/28 16:43:01;;;;;;;1.62;1.37;;;;;;;20.54;42.97;101599.98;;;;-56
2021/03/28 16:46:01;;;;;;;5.60;1.50;;;;;;;20.54;42.97;101599.74;;;;-57
2021/03/28 16:49:02;;;;;;;1.76;1.36;;;;;;;20.54;42.96;101599.98;;;;-57
2021/03/28 16:52:01;;;;;;;2.40;1.26;;;;;;;20.53;42.94;101606.50;;;;-58
2021/03/28 16:55:01;;;;;;;2.35;1.29;;;;;;;20.52;42.89;101609.22;;;;-54
2021/03/28 16:58:02;;;;;;;3.42;1.44;;;;;;;20.54;43.53;101607.76;;;;-50
2021/03/28 17:01:01;;;;;;;1.99;1.13;;;;;;;20.55;43.69;101614.28;;;;-59
2021/03/28 17:04:01;;;;;;;5.27;1.44;;;;;;;20.56;44.05;101608.50;;;;-53
2021/03/28 17:07:01;;;;;;;3.65;1.30;;;;;;;20.58;43.95;101611.42;;;;-55
2021/03/28 17:10:01;;;;;;;1.65;1.18;;;;;;;20.59;43.89;101615.45;;;;-55
2021/03/28 17:13:01;;;;;;;2.18;1.31;;;;;;;20.58;43.85;101618.27;;;;-54
2021/03/28 17:16:01;;;;;;;1.81;1.10;;;;;;;20.58;43.90;101617.05;;;;-53
2021/03/28 17:19:01;;;;;;;2.57;1.29;;;;;;;20.58;43.87;101618.02;;;;-55
2021/03/28 17:22:01;;;;;;;1.50;1.31;;;;;;;20.59;43.96;101618.70;;;;-51
2021/03/28 17:25:01;;;;;;;1.91;1.20;;;;;;;20.61;43.94;101616.47;;;;-57
2021/03/28 17:28:01;;;;;;;1.91;1.21;;;;;;;20.63;43.93;101616.19;;;;-51
2021/03/28 17:31:01;;;;;;;1.69;1.24;;;;;;;20.62;44.08;101616.63;;;;-52
2021/03/28 17:34:01;;;;;;;1.47;1.21;;;;;;;20.64;44.15;101618.71;;;;-56
2021/03/28 17:37:01;;;;;;;1.73;1.30;;;;;;;20.65;44.04;101619.73;;;;-57
2021/03/28 17:40:01;;;;;;;2.22;1.14;;;;;;;20.67;44.15;101616.10;;;;-58
2021/03/28 17:43:01;;;;;;;2.23;1.20;;;;;;;20.68;44.08;101616.19;;;;-54
2021/03/28 17:46:01;;;;;;;2.99;1.25;;;;;;;20.69;43.74;101611.30;;;;-51
2021/03/28 17:49:01;;;;;;;1.33;1.23;;;;;;;20.67;43.47;101607.35;;;;-52
2021/03/28 17:52:01;;;;;;;1.82;1.20;;;;;;;20.65;43.43;101603.52;;;;-51
2021/03/28 17:55:01;;;;;;;2.07;1.21;;;;;;;20.65;43.33;101608.12;;;;-51
2021/03/28 18:00:01;;;;;;;1.33;1.07;;;;;;;20.61;43.28;101610.60;;;;-52